Time;durP1;ratioP1;P1;durP2;ratioP2;P2;SDS_P1;SDS_P2;PMS_P1;PMS_P2;Temp;Humidity;BMP_temperature;BMP_pressure;BME280_temperature;BME280_humidity;BME280_pressure;Samples;Min_cycle;Max_cycle;Signal;HPM_P1;HPM_P2
2021/10/31 00:01:46;;;;;;;5.00;4.15;;;;;;;;;;5108137;28;20058;-62
2021/10/31 00:04:12;;;;;;;5.05;4.43;;;;;;;;;;5107060;28;20463;-62
2021/10/31 00:06:37;;;;;;;7.30;6.00;;;;;;;;;;5104853;28;20020;-62
2021/10/31 00:09:06;;;;;;;5.13;4.38;;;;;;;;;;5091766;28;20032;-62
2021/10/31 00:11:33;;;;;;;6.28;4.78;;;;;;;;;;5107245;28;20035;-62
2021/10/31 00:13:58;;;;;;;6.75;5.40;;;;;;;;;;5105205;28;20079;-62
2021/10/31 00:16:23;;;;;;;4.80;3.95;;;;;;;;;;5107621;28;20473;-62
2021/10/31 00:18:49;;;;;;;5.53;4.63;;;;;;;;;;5105239;28;20024;-62
2021/10/31 00:21:14;;;;;;;5.82;4.63;;;;;;;;;;5108394;28;20023;-62
2021/10/31 00:23:40;;;;;;;6.20;4.70;;;;;;;;;;5107060;28;20046;-62
2021/10/31 00:26:05;;;;;;;5.97;5.25;;;;;;;;;;5104782;28;20028;-62
2021/10/31 00:28:30;;;;;;;5.35;4.00;;;;;;;;;;5109495;28;20032;-62
2021/10/31 00:30:56;;;;;;;5.43;4.88;;;;;;;;;;5106604;28;20482;-61
2021/10/31 00:33:21;;;;;;;5.53;4.38;;;;;;;;;;5104935;28;20111;-62
2021/10/31 00:35:47;;;;;;;5.05;4.18;;;;;;;;;;5104532;28;20453;-62
2021/10/31 00:38:12;;;;;;;5.28;4.38;;;;;;;;;;5107200;28;20023;-61
2021/10/31 00:40:38;;;;;;;5.18;4.68;;;;;;;;;;5106827;28;20070;-62
2021/10/31 00:43:03;;;;;;;5.93;4.72;;;;;;;;;;5106422;28;20369;-62
2021/10/31 00:45:28;;;;;;;6.60;5.30;;;;;;;;;;5103527;28;20032;-62
2021/10/31 00:47:54;;;;;;;14.15;5.93;;;;;;;;;;5093309;28;20020;-64
2021/10/31 00:50:20;;;;;;;7.75;5.05;;;;;;;;;;5109428;28;20119;-63
2021/10/31 00:52:46;;;;;;;5.13;4.28;;;;;;;;;;5091969;28;20031;-61
2021/10/31 00:55:13;;;;;;;6.57;4.18;;;;;;;;;;5104534;28;20036;-61
2021/10/31 00:57:38;;;;;;;4.43;3.63;;;;;;;;;;5104961;28;20028;-60
2021/10/31 01:00:05;;;;;;;5.80;4.18;;;;;;;;;;5088855;28;20433;-61
2021/10/31 01:02:31;;;;;;;4.38;3.97;;;;;;;;;;5105601;28;20031;-61
2021/10/31 01:05:00;;;;;;;4.85;4.22;;;;;;;;;;5105252;28;20031;-62
2021/10/31 01:07:47;;;;;;;6.60;4.15;;;;;;;;;;5102107;28;20073;-61
2021/10/31 01:10:18;;;;;;;5.35;4.50;;;;;;;;;;5104200;28;20111;-61
2021/10/31 01:13:00;;;;;;;6.82;5.15;;;;;;;;;;5106739;28;20046;-62
2021/10/31 01:15:52;;;;;;;5.43;4.30;;;;;;;;;;5104071;28;20047;-61
2021/10/31 01:18:30;;;;;;;8.73;4.93;;;;;;;;;;5101653;28;20335;-61
2021/10/31 01:21:06;;;;;;;5.05;4.32;;;;;;;;;;5105281;28;20027;-61
2021/10/31 01:23:53;;;;;;;9.13;6.22;;;;;;;;;;5104455;28;20031;-61
2021/10/31 01:26:34;;;;;;;7.13;4.97;;;;;;;;;;5104240;28;20028;-61
2021/10/31 01:29:12;;;;;;;5.63;4.47;;;;;;;;;;5104334;28;20032;-61
2021/10/31 01:32:15;;;;;;;5.07;4.57;;;;;;;;;;5102670;28;20266;-60
2021/10/31 01:35:12;;;;;;;5.53;3.90;;;;;;;;;;5101671;28;20172;-60
2021/10/31 01:38:05;;;;;;;5.00;4.15;;;;;;;;;;5105172;28;20465;-61
2021/10/31 01:40:35;;;;;;;4.93;3.97;;;;;;;;;;5104671;28;20027;-62
2021/10/31 01:43:08;;;;;;;7.35;5.15;;;;;;;;;;5105390;28;20027;-62
2021/10/31 01:45:52;;;;;;;7.78;4.32;;;;;;;;;;5092416;28;20461;-62
2021/10/31 01:48:33;;;;;;;7.18;5.63;;;;;;;;;;5107284;28;20483;-61
2021/10/31 01:51:03;;;;;;;6.40;4.63;;;;;;;;;;5103882;28;20457;-60
2021/10/31 01:53:32;;;;;;;13.05;4.88;;;;;;;;;;5102093;28;20055;-60
2021/10/31 01:55:58;;;;;;;5.35;4.53;;;;;;;;;;5106108;28;20020;-62
2021/10/31 01:58:25;;;;;;;11.05;5.53;;;;;;;;;;5104193;28;20027;-62
2021/10/31 02:00:52;;;;;;;5.50;3.97;;;;;;;;;;5102557;28;20020;-61
2021/10/31 02:03:20;;;;;;;10.65;5.05;;;;;;;;;;5104556;28;20031;-62
2021/10/31 02:05:48;;;;;;;5.05;4.55;;;;;;;;;;5103538;28;20061;-60
2021/10/31 02:08:17;;;;;;;5.13;4.10;;;;;;;;;;5106134;28;20032;-60
2021/10/31 02:10:46;;;;;;;4.93;4.22;;;;;;;;;;5104779;28;20372;-61
2021/10/31 02:13:14;;;;;;;5.70;4.25;;;;;;;;;;5106587;28;20032;-61
2021/10/31 02:15:42;;;;;;;7.20;4.97;;;;;;;;;;5090742;28;20457;-60
2021/10/31 02:18:11;;;;;;;6.03;4.47;;;;;;;;;;5099246;28;20043;-60
2021/10/31 02:20:40;;;;;;;6.35;4.70;;;;;;;;;;5103906;28;20067;-61
2021/10/31 02:23:05;;;;;;;4.63;3.67;;;;;;;;;;5101277;28;20463;-61
2021/10/31 02:25:32;;;;;;;4.85;4.30;;;;;;;;;;5099607;28;20028;-60
2021/10/31 02:27:58;;;;;;;7.25;4.93;;;;;;;;;;5102091;28;20296;-60
2021/10/31 02:30:23;;;;;;;4.28;3.88;;;;;;;;;;5100003;28;20032;-60
2021/10/31 02:32:51;;;;;;;6.13;4.68;;;;;;;;;;5101371;28;20032;-61
2021/10/31 02:35:17;;;;;;;5.50;4.13;;;;;;;;;;5101265;28;20110;-60
2021/10/31 02:37:42;;;;;;;3.97;3.30;;;;;;;;;;5102015;28;20122;-60
2021/10/31 02:40:10;;;;;;;4.45;4.05;;;;;;;;;;5105607;28;20055;-61
2021/10/31 02:42:36;;;;;;;4.95;4.45;;;;;;;;;;5101901;28;20040;-60
2021/10/31 02:45:03;;;;;;;5.95;4.40;;;;;;;;;;5102163;28;20668;-60
2021/10/31 02:47:34;;;;;;;4.78;4.28;;;;;;;;;;5100899;28;20042;-60
2021/10/31 02:50:00;;;;;;;10.25;4.85;;;;;;;;;;5102499;28;20024;-60
2021/10/31 02:52:44;;;;;;;5.28;4.78;;;;;;;;;;5097816;28;20037;-60
2021/10/31 02:55:20;;;;;;;5.70;3.90;;;;;;;;;;5100562;28;20069;-60
2021/10/31 02:58:12;;;;;;;5.38;4.18;;;;;;;;;;5102155;28;20089;-60
2021/10/31 03:00:39;;;;;;;9.30;4.68;;;;;;;;;;5103977;28;20111;-60
2021/10/31 03:03:07;;;;;;;4.35;3.88;;;;;;;;;;5101413;28;20238;-60
2021/10/31 03:05:34;;;;;;;4.82;4.03;;;;;;;;;;5102787;28;20032;-59
2021/10/31 03:08:00;;;;;;;5.72;4.43;;;;;;;;;;5103253;28;20045;-60
2021/10/31 03:10:25;;;;;;;6.78;5.07;;;;;;;;;;5105177;28;20023;-59
2021/10/31 03:12:50;;;;;;;3.72;3.35;;;;;;;;;;5089968;28;20122;-60
2021/10/31 03:15:19;;;;;;;6.85;4.35;;;;;;;;;;5099186;28;20032;-60
2021/10/31 03:17:45;;;;;;;5.43;4.38;;;;;;;;;;5101679;28;20024;-59
2021/10/31 03:20:11;;;;;;;6.38;4.47;;;;;;;;;;5103868;28;20118;-60
2021/10/31 03:22:36;;;;;;;4.40;3.63;;;;;;;;;;5097329;28;20035;-60
2021/10/31 03:25:02;;;;;;;4.65;3.80;;;;;;;;;;5104695;28;20087;-60
2021/10/31 03:27:28;;;;;;;4.60;4.07;;;;;;;;;;5089880;28;20051;-59
2021/10/31 03:29:53;;;;;;;5.43;4.40;;;;;;;;;;5102145;28;20041;-60
2021/10/31 03:32:19;;;;;;;7.07;4.60;;;;;;;;;;5102457;28;20107;-60
2021/10/31 03:34:45;;;;;;;5.75;4.57;;;;;;;;;;5105852;28;20082;-60
2021/10/31 03:37:10;;;;;;;4.30;3.70;;;;;;;;;;5104036;28;20040;-60
2021/10/31 03:39:36;;;;;;;7.88;4.47;;;;;;;;;;5098889;28;20036;-60
2021/10/31 03:42:01;;;;;;;4.35;3.60;;;;;;;;;;5102346;28;20035;-60
2021/10/31 03:44:28;;;;;;;4.53;4.07;;;;;;;;;;5104757;28;20042;-59
2021/10/31 03:46:54;;;;;;;3.20;2.88;;;;;;;;;;5104223;28;20024;-59
2021/10/31 03:49:19;;;;;;;11.07;4.13;;;;;;;;;;5104881;28;20432;-60
2021/10/31 03:51:45;;;;;;;5.68;4.15;;;;;;;;;;5101442;28;20104;-60
2021/10/31 03:54:11;;;;;;;4.15;3.58;;;;;;;;;;5102060;28;20027;-60
2021/10/31 03:56:37;;;;;;;4.57;3.72;;;;;;;;;;5105227;28;20023;-60
2021/10/31 03:59:02;;;;;;;4.22;3.83;;;;;;;;;;5103389;28;20097;-60
2021/10/31 04:01:31;;;;;;;3.90;3.38;;;;;;;;;;5089497;28;20028;-60
2021/10/31 04:03:57;;;;;;;5.93;3.88;;;;;;;;;;5101995;28;20083;-61
2021/10/31 04:06:22;;;;;;;5.82;3.75;;;;;;;;;;5105004;28;20020;-61
2021/10/31 04:08:48;;;;;;;4.93;4.43;;;;;;;;;;5104251;28;20036;-61
2021/10/31 04:11:13;;;;;;;6.57;4.90;;;;;;;;;;5104020;28;20035;-61
2021/10/31 04:13:38;;;;;;;6.75;4.47;;;;;;;;;;5100607;28;20026;-61
2021/10/31 04:16:04;;;;;;;5.03;3.92;;;;;;;;;;5100470;28;20036;-61
2021/10/31 04:18:30;;;;;;;5.53;4.15;;;;;;;;;;5098669;28;20439;-61
2021/10/31 04:20:56;;;;;;;4.95;3.97;;;;;;;;;;5102122;28;20127;-60
2021/10/31 04:23:22;;;;;;;5.47;4.03;;;;;;;;;;5103621;28;20036;-60
2021/10/31 04:25:48;;;;;;;5.60;3.70;;;;;;;;;;5102084;28;20020;-60
2021/10/31 04:28:13;;;;;;;5.05;3.75;;;;;;;;;;5105340;28;20023;-60
2021/10/31 04:30:39;;;;;;;5.25;4.57;;;;;;;;;;5104316;28;20042;-60
2021/10/31 04:33:05;;;;;;;4.32;3.67;;;;;;;;;;5103844;28;20028;-61
2021/10/31 04:35:30;;;;;;;6.65;4.35;;;;;;;;;;5108244;28;20040;-61
2021/10/31 04:38:04;;;;;;;4.20;3.78;;;;;;;;;;5109572;28;20030;-60
2021/10/31 04:40:33;;;;;;;5.05;3.67;;;;;;;;;;5106411;28;20397;-61
2021/10/31 04:42:59;;;;;;;5.97;4.90;;;;;;;;;;5106533;28;20111;-60
2021/10/31 04:45:24;;;;;;;4.32;3.63;;;;;;;;;;5102454;28;20115;-61
2021/10/31 04:47:50;;;;;;;5.32;4.57;;;;;;;;;;5107385;28;20028;-61
2021/10/31 04:50:15;;;;;;;4.53;4.03;;;;;;;;;;5094355;28;20040;-61
2021/10/31 04:52:43;;;;;;;4.45;4.03;;;;;;;;;;5104910;28;20050;-61
2021/10/31 04:55:09;;;;;;;5.65;4.40;;;;;;;;;;5103720;28;20034;-60
2021/10/31 04:57:34;;;;;;;4.45;3.65;;;;;;;;;;5090703;28;20039;-61
2021/10/31 05:00:00;;;;;;;4.50;4.05;;;;;;;;;;5105072;28;20036;-60
2021/10/31 05:02:26;;;;;;;5.15;3.92;;;;;;;;;;5106286;28;20130;-61
2021/10/31 05:04:51;;;;;;;4.60;4.10;;;;;;;;;;5105177;28;20036;-61
2021/10/31 05:07:17;;;;;;;5.28;3.38;;;;;;;;;;5105320;28;20019;-61
2021/10/31 05:09:42;;;;;;;4.13;3.40;;;;;;;;;;5105357;28;20016;-61
2021/10/31 05:12:08;;;;;;;5.90;4.25;;;;;;;;;;5103796;28;20489;-61
2021/10/31 05:14:33;;;;;;;4.20;3.47;;;;;;;;;;5105578;28;20473;-61
2021/10/31 05:17:00;;;;;;;4.18;3.45;;;;;;;;;;5104820;28;20031;-61
2021/10/31 05:19:25;;;;;;;5.07;3.92;;;;;;;;;;5105512;28;20093;-61
2021/10/31 05:21:51;;;;;;;7.55;5.40;;;;;;;;;;5103557;28;20453;-61
2021/10/31 05:24:16;;;;;;;12.45;4.95;;;;;;;;;;5106938;28;20038;-61
2021/10/31 05:26:42;;;;;;;5.70;4.20;;;;;;;;;;5106553;28;20066;-61
2021/10/31 05:29:08;;;;;;;5.65;3.92;;;;;;;;;;5106134;28;20024;-61
2021/10/31 05:31:33;;;;;;;6.10;4.38;;;;;;;;;;5101043;28;20115;-61
2021/10/31 05:33:59;;;;;;;5.07;3.72;;;;;;;;;;5106847;28;20111;-61
2021/10/31 05:36:24;;;;;;;5.18;4.22;;;;;;;;;;5103948;28;20028;-61
2021/10/31 05:38:50;;;;;;;5.10;4.05;;;;;;;;;;5103120;28;20027;-61
2021/10/31 05:41:15;;;;;;;4.93;4.32;;;;;;;;;;5103815;27;20040;-61
2021/10/31 05:43:41;;;;;;;5.20;4.20;;;;;;;;;;5106025;28;20042;-61
2021/10/31 05:46:07;;;;;;;6.30;4.68;;;;;;;;;;5105221;28;20020;-62
2021/10/31 05:48:32;;;;;;;6.25;5.35;;;;;;;;;;5107069;28;20042;-61
2021/10/31 05:50:58;;;;;;;6.10;4.00;;;;;;;;;;5104708;28;20043;-61
2021/10/31 05:53:24;;;;;;;4.68;4.20;;;;;;;;;;5104076;28;20036;-61
2021/10/31 05:55:50;;;;;;;5.57;4.90;;;;;;;;;;5103498;28;20046;-60
2021/10/31 05:58:15;;;;;;;5.70;4.22;;;;;;;;;;5106110;28;20161;-60
2021/10/31 06:00:41;;;;;;;9.07;4.97;;;;;;;;;;5102074;28;20377;-60
2021/10/31 06:03:06;;;;;;;6.38;4.53;;;;;;;;;;5103083;28;20028;-62
2021/10/31 06:05:32;;;;;;;4.97;4.10;;;;;;;;;;5104424;28;20031;-61
2021/10/31 06:07:58;;;;;;;5.53;4.07;;;;;;;;;;5105806;28;20046;-63
2021/10/31 06:10:23;;;;;;;6.55;4.90;;;;;;;;;;5104784;28;20373;-62
2021/10/31 06:12:49;;;;;;;6.38;5.30;;;;;;;;;;5103000;28;20032;-61
2021/10/31 06:15:17;;;;;;;4.45;3.95;;;;;;;;;;5107031;28;20032;-62
2021/10/31 06:17:42;;;;;;;4.78;3.97;;;;;;;;;;5100680;28;20027;-60
2021/10/31 06:20:09;;;;;;;6.10;4.60;;;;;;;;;;5106297;28;20365;-62
2021/10/31 06:22:35;;;;;;;5.35;3.95;;;;;;;;;;5103112;28;20423;-61
2021/10/31 06:25:00;;;;;;;8.70;4.80;;;;;;;;;;5101223;28;20089;-62
2021/10/31 06:27:26;;;;;;;4.20;3.75;;;;;;;;;;5101467;28;20051;-62
2021/10/31 06:29:51;;;;;;;6.57;4.43;;;;;;;;;;5106767;28;20111;-61
2021/10/31 06:32:16;;;;;;;3.83;3.33;;;;;;;;;;5104909;28;20038;-62
2021/10/31 06:34:42;;;;;;;13.20;5.05;;;;;;;;;;5102414;28;20493;-61
2021/10/31 06:37:07;;;;;;;5.15;4.40;;;;;;;;;;5103594;28;20023;-62
2021/10/31 06:39:33;;;;;;;4.97;4.47;;;;;;;;;;5090403;28;20044;-61
2021/10/31 06:41:58;;;;;;;5.05;4.47;;;;;;;;;;5090019;28;20042;-62
2021/10/31 06:44:24;;;;;;;7.72;4.18;;;;;;;;;;5102732;28;20031;-62
2021/10/31 06:46:49;;;;;;;4.97;4.47;;;;;;;;;;5105031;28;20035;-62
2021/10/31 06:49:15;;;;;;;4.75;3.95;;;;;;;;;;5098411;28;20103;-61
2021/10/31 06:51:40;;;;;;;4.47;3.75;;;;;;;;;;5100413;28;20712;-62
2021/10/31 06:54:06;;;;;;;6.13;4.72;;;;;;;;;;5099847;28;20080;-62
2021/10/31 06:56:31;;;;;;;5.70;5.07;;;;;;;;;;5103325;28;20073;-62
2021/10/31 06:58:58;;;;;;;5.45;4.22;;;;;;;;;;5103281;28;20022;-62
2021/10/31 07:01:23;;;;;;;7.43;5.07;;;;;;;;;;5104883;28;20061;-60
2021/10/31 07:03:49;;;;;;;5.15;4.43;;;;;;;;;;5100168;28;20020;-62
2021/10/31 07:06:16;;;;;;;5.50;4.68;;;;;;;;;;5103054;28;20040;-62
2021/10/31 07:08:42;;;;;;;6.22;5.13;;;;;;;;;;5088472;28;20103;-62
2021/10/31 07:11:08;;;;;;;6.28;4.72;;;;;;;;;;5102205;28;20088;-62
2021/10/31 07:13:33;;;;;;;12.30;4.95;;;;;;;;;;5102012;28;20043;-62
2021/10/31 07:15:59;;;;;;;7.38;4.50;;;;;;;;;;5101115;28;20055;-62
2021/10/31 07:18:24;;;;;;;5.10;4.40;;;;;;;;;;5101934;28;20590;-62
2021/10/31 07:20:50;;;;;;;6.40;5.18;;;;;;;;;;5104342;28;20043;-62
2021/10/31 07:23:15;;;;;;;4.95;3.75;;;;;;;;;;5100110;28;20142;-60
2021/10/31 07:25:40;;;;;;;5.00;4.50;;;;;;;;;;5101946;28;20116;-62
2021/10/31 07:28:06;;;;;;;8.70;5.75;;;;;;;;;;5101619;28;20024;-62
2021/10/31 07:30:32;;;;;;;9.43;4.03;;;;;;;;;;5103508;28;20379;-62
2021/10/31 07:32:59;;;;;;;5.38;4.80;;;;;;;;;;5104561;28;20077;-62
2021/10/31 07:35:26;;;;;;;5.82;5.22;;;;;;;;;;5104680;28;20023;-62
2021/10/31 07:37:53;;;;;;;5.05;4.55;;;;;;;;;;5101973;28;20054;-62
2021/10/31 07:40:19;;;;;;;5.75;5.15;;;;;;;;;;5089839;28;20532;-62
2021/10/31 07:42:44;;;;;;;6.80;5.88;;;;;;;;;;5107217;28;20054;-62
2021/10/31 07:45:10;;;;;;;26.98;17.67;;;;;;;;;;5083539;28;20429;-62
2021/10/31 07:47:36;;;;;;;14.32;10.15;;;;;;;;;;5100068;28;20097;-61
2021/10/31 07:50:03;;;;;;;8.02;6.97;;;;;;;;;;5099222;28;20356;-62
2021/10/31 07:52:29;;;;;;;7.68;5.15;;;;;;;;;;5103788;28;20027;-62
2021/10/31 07:54:56;;;;;;;5.38;4.70;;;;;;;;;;5104676;28;20369;-62
2021/10/31 07:57:24;;;;;;;12.73;9.43;;;;;;;;;;5087899;28;20334;-62
2021/10/31 07:59:51;;;;;;;15.70;7.45;;;;;;;;;;5105522;28;20035;-62
2021/10/31 08:02:16;;;;;;;10.43;8.38;;;;;;;;;;5107674;28;20054;-62
2021/10/31 08:04:42;;;;;;;10.82;6.22;;;;;;;;;;5106833;28;20024;-68
2021/10/31 08:07:07;;;;;;;6.20;4.75;;;;;;;;;;5104551;27;20629;-65
2021/10/31 08:09:33;;;;;;;5.13;4.35;;;;;;;;;;5108151;27;20023;-70
2021/10/31 08:11:58;;;;;;;5.40;3.92;;;;;;;;;;5093335;28;20472;-63
2021/10/31 08:14:24;;;;;;;6.97;5.70;;;;;;;;;;5104514;28;20035;-63
2021/10/31 08:16:49;;;;;;;4.38;3.92;;;;;;;;;;5104317;28;20042;-63
2021/10/31 08:19:14;;;;;;;4.85;4.13;;;;;;;;;;5105313;28;20845;-63
2021/10/31 08:21:40;;;;;;;4.40;4.00;;;;;;;;;;5103614;27;20016;-63
2021/10/31 08:24:06;;;;;;;5.22;4.47;;;;;;;;;;5108766;27;20039;-63
2021/10/31 08:26:32;;;;;;;5.95;4.35;;;;;;;;;;5104104;28;20087;-62
2021/10/31 08:29:00;;;;;;;4.45;4.05;;;;;;;;;;5106118;28;20070;-63
2021/10/31 08:31:28;;;;;;;6.65;4.47;;;;;;;;;;5099643;28;20024;-62
2021/10/31 08:33:57;;;;;;;6.07;4.93;;;;;;;;;;5104490;27;20051;-62
2021/10/31 08:36:23;;;;;;;5.10;4.32;;;;;;;;;;5105857;27;20036;-61
2021/10/31 08:38:49;;;;;;;5.05;4.20;;;;;;;;;;5103892;28;20042;-61
2021/10/31 08:41:18;;;;;;;5.20;4.63;;;;;;;;;;5091021;28;20062;-62
2021/10/31 08:43:43;;;;;;;5.57;4.22;;;;;;;;;;5104350;27;20059;-60
2021/10/31 08:46:10;;;;;;;6.78;5.80;;;;;;;;;;5102626;27;20044;-60
2021/10/31 08:48:38;;;;;;;5.03;4.00;;;;;;;;;;5104400;28;20032;-60
2021/10/31 08:51:03;;;;;;;5.47;4.95;;;;;;;;;;5105546;28;20070;-61
2021/10/31 08:53:29;;;;;;;5.45;4.75;;;;;;;;;;5104895;28;20088;-62
2021/10/31 08:55:56;;;;;;;4.97;4.35;;;;;;;;;;5093324;28;20023;-61
2021/10/31 08:58:22;;;;;;;4.53;4.13;;;;;;;;;;5105330;28;20031;-61
2021/10/31 09:00:47;;;;;;;4.25;3.85;;;;;;;;;;5105895;28;21580;-61
2021/10/31 09:03:13;;;;;;;4.93;3.60;;;;;;;;;;5104241;28;20028;-61
2021/10/31 09:05:38;;;;;;;4.20;3.78;;;;;;;;;;5086976;28;20040;-61
2021/10/31 09:08:05;;;;;;;4.00;3.55;;;;;;;;;;5104784;28;20095;-61
2021/10/31 09:10:32;;;;;;;5.03;4.50;;;;;;;;;;5103864;28;20076;-61
2021/10/31 09:12:59;;;;;;;4.55;3.90;;;;;;;;;;5107146;28;20525;-61
2021/10/31 09:15:25;;;;;;;4.45;3.67;;;;;;;;;;5104521;28;20036;-61
2021/10/31 09:17:51;;;;;;;5.82;4.03;;;;;;;;;;5103961;28;20024;-61
2021/10/31 09:20:16;;;;;;;4.13;3.72;;;;;;;;;;5106295;28;20043;-60
2021/10/31 09:22:42;;;;;;;3.95;3.55;;;;;;;;;;5104042;28;20059;-61
2021/10/31 09:25:07;;;;;;;5.32;3.75;;;;;;;;;;5105750;28;20059;-60
2021/10/31 09:27:33;;;;;;;5.57;3.95;;;;;;;;;;5103047;28;20096;-61
2021/10/31 09:29:58;;;;;;;3.75;3.35;;;;;;;;;;5104813;28;20089;-61
2021/10/31 09:32:26;;;;;;;4.22;3.53;;;;;;;;;;5103325;28;20051;-61
2021/10/31 09:34:51;;;;;;;4.25;3.55;;;;;;;;;;5081994;28;20058;-61
2021/10/31 09:37:17;;;;;;;4.85;3.90;;;;;;;;;;5101721;28;20429;-61
2021/10/31 09:39:42;;;;;;;3.90;3.53;;;;;;;;;;5104372;28;20043;-61
2021/10/31 09:42:10;;;;;;;4.82;3.83;;;;;;;;;;5102896;28;20036;-61
2021/10/31 09:44:48;;;;;;;4.30;3.90;;;;;;;;;;5102917;28;20062;-60
2021/10/31 09:47:14;;;;;;;5.35;3.78;;;;;;;;;;5105923;28;20339;-60
2021/10/31 09:49:41;;;;;;;4.20;3.42;;;;;;;;;;5084881;28;20523;-60
2021/10/31 09:52:07;;;;;;;4.20;3.42;;;;;;;;;;5107337;28;20103;-60
2021/10/31 09:54:32;;;;;;;4.30;3.80;;;;;;;;;;5104057;28;20118;-60
2021/10/31 09:56:58;;;;;;;4.35;3.88;;;;;;;;;;5101658;28;20472;-60
2021/10/31 09:59:26;;;;;;;6.65;4.25;;;;;;;;;;5102304;28;20035;-60
2021/10/31 10:04:27;;;;;;;3.70;3.22;;;;;;;;;;5104593;28;20036;-60
2021/10/31 10:06:55;;;;;;;5.88;3.92;;;;;;;;;;5104569;28;20028;-60
2021/10/31 10:09:20;;;;;;;4.30;3.90;;;;;;;;;;5104228;28;20032;-60
2021/10/31 10:11:49;;;;;;;3.53;3.03;;;;;;;;;;5102861;28;20444;-60
2021/10/31 10:14:24;;;;;;;3.88;3.25;;;;;;;;;;5102164;28;20028;-60
2021/10/31 10:16:58;;;;;;;4.03;3.63;;;;;;;;;;5101705;28;20062;-60
2021/10/31 10:19:27;;;;;;;5.05;3.78;;;;;;;;;;5105944;28;20028;-60
2021/10/31 10:21:56;;;;;;;3.90;3.40;;;;;;;;;;5105492;28;20031;-60
2021/10/31 10:24:23;;;;;;;4.30;3.35;;;;;;;;;;5089895;28;20024;-60
2021/10/31 10:26:50;;;;;;;3.53;3.22;;;;;;;;;;5104331;28;20089;-60
2021/10/31 10:29:23;;;;;;;4.35;3.35;;;;;;;;;;5103002;28;20102;-60
2021/10/31 10:31:52;;;;;;;3.55;3.10;;;;;;;;;;5103028;28;20036;-60
2021/10/31 10:34:36;;;;;;;3.40;3.10;;;;;;;;;;5104485;28;20051;-60
2021/10/31 10:37:16;;;;;;;3.30;3.00;;;;;;;;;;5102983;28;20060;-60
2021/10/31 10:40:03;;;;;;;3.00;2.70;;;;;;;;;;5103377;28;20487;-60
2021/10/31 10:42:36;;;;;;;2.72;2.42;;;;;;;;;;5104787;28;20583;-60
2021/10/31 10:45:15;;;;;;;3.35;3.00;;;;;;;;;;5099641;28;20024;-60
2021/10/31 10:47:56;;;;;;;3.70;3.40;;;;;;;;;;5098337;28;20028;-60
2021/10/31 10:50:36;;;;;;;2.85;2.40;;;;;;;;;;5103002;28;20085;-60
2021/10/31 10:53:03;;;;;;;3.17;2.88;;;;;;;;;;5104272;28;20138;-60
2021/10/31 10:55:31;;;;;;;3.00;2.60;;;;;;;;;;5104614;28;20032;-60
2021/10/31 10:57:56;;;;;;;3.25;2.72;;;;;;;;;;5105485;28;20036;-60
2021/10/31 11:00:34;;;;;;;3.42;3.03;;;;;;;;;;5105077;28;20032;-60
2021/10/31 11:02:59;;;;;;;2.80;2.40;;;;;;;;;;5103584;28;20471;-60
2021/10/31 11:05:28;;;;;;;3.45;3.13;;;;;;;;;;5106304;28;20023;-60
2021/10/31 11:07:54;;;;;;;3.47;2.97;;;;;;;;;;5104770;28;20039;-60
2021/10/31 11:10:25;;;;;;;2.72;2.38;;;;;;;;;;5102460;28;20038;-60
2021/10/31 11:12:53;;;;;;;3.30;2.97;;;;;;;;;;5103668;28;20027;-61
2021/10/31 11:15:20;;;;;;;2.95;2.42;;;;;;;;;;5102842;28;20031;-60
2021/10/31 11:17:49;;;;;;;3.80;3.33;;;;;;;;;;5104044;28;20090;-60
2021/10/31 11:20:17;;;;;;;3.30;2.80;;;;;;;;;;5104562;28;20020;-60
2021/10/31 11:22:48;;;;;;;4.15;2.72;;;;;;;;;;5104688;28;20028;-59
2021/10/31 11:25:15;;;;;;;;;;;;;;;;;;5101780;28;20019;-60
2021/10/31 11:27:41;;;;;;;3.70;3.30;;;;;;;;;;5102380;28;19916;-59
2021/10/31 11:30:08;;;;;;;2.92;2.58;;;;;;;;;;5103444;28;20352;-60
2021/10/31 11:32:36;;;;;;;2.80;2.30;;;;;;;;;;5105389;28;20126;-60
2021/10/31 11:35:02;;;;;;;3.50;3.20;;;;;;;;;;5102038;28;20032;-60
2021/10/31 11:37:55;;;;;;;4.55;3.58;;;;;;;;;;5109033;28;20039;-60
2021/10/31 11:40:39;;;;;;;3.90;3.50;;;;;;;;;;5104992;28;20418;-60
2021/10/31 11:43:18;;;;;;;11.73;3.80;;;;;;;;;;5102051;28;20035;-60
2021/10/31 11:45:46;;;;;;;4.18;2.63;;;;;;;;;;5105840;28;20035;-60
2021/10/31 11:48:16;;;;;;;3.17;2.75;;;;;;;;;;5106383;28;20036;-60
2021/10/31 11:51:03;;;;;;;2.80;2.30;;;;;;;;;;5106773;28;20078;-60
2021/10/31 11:53:31;;;;;;;2.90;2.60;;;;;;;;;;5106918;28;20032;-59
2021/10/31 11:56:00;;;;;;;3.22;2.90;;;;;;;;;;5109822;28;20027;-59
2021/10/31 11:58:34;;;;;;;4.05;3.65;;;;;;;;;;5104739;28;20024;-59
2021/10/31 12:01:01;;;;;;;2.70;2.28;;;;;;;;;;5106821;28;20110;-59
2021/10/31 12:03:33;;;;;;;3.20;2.72;;;;;;;;;;5108409;28;20024;-59
2021/10/31 12:06:21;;;;;;;3.10;2.42;;;;;;;;;;5109056;28;20027;-59
2021/10/31 12:08:53;;;;;;;3.65;3.15;;;;;;;;;;5105093;28;20368;-59
2021/10/31 12:11:34;;;;;;;4.88;3.83;;;;;;;;;;5106161;28;20023;-59
2021/10/31 12:14:11;;;;;;;3.35;3.03;;;;;;;;;;5107158;28;20028;-60
2021/10/31 12:16:56;;;;;;;2.80;2.40;;;;;;;;;;5107368;28;20571;-60
2021/10/31 12:19:40;;;;;;;3.22;2.75;;;;;;;;;;5088267;28;20068;-59
2021/10/31 12:22:16;;;;;;;5.10;2.78;;;;;;;;;;5105557;28;20020;-59
2021/10/31 12:24:45;;;;;;;3.42;2.60;;;;;;;;;;5105657;28;20032;-59
2021/10/31 12:27:15;;;;;;;2.90;2.60;;;;;;;;;;5105132;28;20028;-59
2021/10/31 12:29:47;;;;;;;3.28;2.67;;;;;;;;;;5088948;28;20019;-59
2021/10/31 12:32:18;;;;;;;3.10;2.60;;;;;;;;;;5092758;28;20032;-60
2021/10/31 12:34:44;;;;;;;;;;;;;;;;;;5108108;28;20116;-59
2021/10/31 12:37:22;;;;;;;2.95;2.40;;;;;;;;;;5103998;28;19915;-59
2021/10/31 12:39:49;;;;;;;2.83;2.40;;;;;;;;;;5108170;28;20028;-59
2021/10/31 12:42:19;;;;;;;2.80;2.42;;;;;;;;;;5105416;28;20095;-59
2021/10/31 12:45:14;;;;;;;2.80;2.10;;;;;;;;;;5107643;28;20042;-59
2021/10/31 12:47:44;;;;;;;3.30;2.97;;;;;;;;;;5096651;28;20122;-59
2021/10/31 12:50:14;;;;;;;2.70;2.30;;;;;;;;;;5104554;28;20035;-59
2021/10/31 12:52:44;;;;;;;3.75;3.17;;;;;;;;;;5105425;28;20552;-59
2021/10/31 12:55:13;;;;;;;2.90;2.55;;;;;;;;;;5106217;28;20036;-60
2021/10/31 12:57:47;;;;;;;2.70;2.30;;;;;;;;;;5106733;28;20367;-60
2021/10/31 13:00:13;;;;;;;2.90;2.60;;;;;;;;;;5103588;28;20035;-59
2021/10/31 13:02:47;;;;;;;6.43;2.60;;;;;;;;;;5106181;28;20032;-59
2021/10/31 13:05:13;;;;;;;2.90;2.40;;;;;;;;;;5108090;28;20088;-59
2021/10/31 13:07:44;;;;;;;2.80;2.45;;;;;;;;;;5102309;28;20399;-59
2021/10/31 13:10:20;;;;;;;3.15;2.45;;;;;;;;;;5106183;28;20024;-59
2021/10/31 13:12:47;;;;;;;2.95;2.60;;;;;;;;;;5105952;28;20032;-59
2021/10/31 13:15:18;;;;;;;3.30;2.65;;;;;;;;;;5100165;28;20512;-59
2021/10/31 13:17:49;;;;;;;3.88;3.30;;;;;;;;;;5090166;28;20369;-59
2021/10/31 13:20:34;;;;;;;3.25;2.78;;;;;;;;;;5102900;28;20785;-59
2021/10/31 13:23:09;;;;;;;3.10;2.60;;;;;;;;;;5103400;28;20468;-60
2021/10/31 13:25:51;;;;;;;3.15;2.85;;;;;;;;;;5107022;28;20119;-59
2021/10/31 13:28:19;;;;;;;3.65;2.63;;;;;;;;;;5106309;28;20020;-60
2021/10/31 13:31:05;;;;;;;3.10;2.53;;;;;;;;;;5103460;28;20034;-59
2021/10/31 13:33:34;;;;;;;3.30;3.00;;;;;;;;;;5106952;28;20560;-59
2021/10/31 13:36:17;;;;;;;2.90;2.60;;;;;;;;;;5086229;28;20035;-59
2021/10/31 13:38:58;;;;;;;2.80;2.38;;;;;;;;;;5101812;28;20024;-59
2021/10/31 13:41:33;;;;;;;3.00;2.65;;;;;;;;;;5105497;28;20038;-59
2021/10/31 13:44:02;;;;;;;3.47;2.45;;;;;;;;;;5107342;28;20024;-59
2021/10/31 13:46:33;;;;;;;2.90;2.40;;;;;;;;;;5101826;28;20102;-60
2021/10/31 13:49:08;;;;;;;2.83;2.42;;;;;;;;;;5103216;28;20064;-59
2021/10/31 13:51:37;;;;;;;2.80;2.30;;;;;;;;;;5103703;28;20115;-59
2021/10/31 13:54:03;;;;;;;3.17;2.88;;;;;;;;;;5101524;28;20040;-59
2021/10/31 13:56:33;;;;;;;3.05;2.55;;;;;;;;;;5087122;28;20028;-59
2021/10/31 13:58:59;;;;;;;3.33;2.75;;;;;;;;;;5103670;28;20024;-59
2021/10/31 14:01:39;;;;;;;4.93;2.95;;;;;;;;;;5107578;28;20039;-59
2021/10/31 14:04:14;;;;;;;2.65;2.13;;;;;;;;;;5102477;28;20106;-59
2021/10/31 14:06:41;;;;;;;3.35;2.42;;;;;;;;;;5102913;28;20553;-59
2021/10/31 14:09:09;;;;;;;3.08;2.65;;;;;;;;;;5105321;28;20040;-59
2021/10/31 14:11:49;;;;;;;3.15;2.67;;;;;;;;;;5106745;28;20040;-59
2021/10/31 14:14:40;;;;;;;4.90;2.40;;;;;;;;;;5103622;28;20076;-59
2021/10/31 14:17:09;;;;;;;2.92;2.42;;;;;;;;;;5106307;28;20456;-59
2021/10/31 14:19:35;;;;;;;3.42;3.05;;;;;;;;;;5087774;28;20035;-59
2021/10/31 14:22:02;;;;;;;3.28;2.72;;;;;;;;;;5104027;28;20376;-60
2021/10/31 14:24:29;;;;;;;3.20;2.90;;;;;;;;;;5102689;28;20074;-59
2021/10/31 14:26:55;;;;;;;3.50;2.90;;;;;;;;;;5086203;28;20032;-59
2021/10/31 14:29:27;;;;;;;3.92;3.53;;;;;;;;;;5101289;28;20055;-59
2021/10/31 14:31:54;;;;;;;3.53;3.22;;;;;;;;;;5102085;28;20084;-59
2021/10/31 14:34:23;;;;;;;3.30;2.72;;;;;;;;;;5084734;28;20114;-59
2021/10/31 14:36:48;;;;;;;4.05;3.65;;;;;;;;;;5103702;28;20107;-59
2021/10/31 14:39:14;;;;;;;4.63;4.22;;;;;;;;;;5106615;28;20114;-59
2021/10/31 14:41:40;;;;;;;3.75;3.35;;;;;;;;;;5105099;28;20096;-59
2021/10/31 14:44:16;;;;;;;3.13;2.83;;;;;;;;;;5105211;28;20031;-59
2021/10/31 14:46:49;;;;;;;3.40;3.08;;;;;;;;;;5102598;28;20041;-59
2021/10/31 14:49:22;;;;;;;4.68;3.10;;;;;;;;;;5102058;28;20031;-61
2021/10/31 14:51:59;;;;;;;5.70;3.47;;;;;;;;;;5099400;28;20056;-59
2021/10/31 14:54:28;;;;;;;3.30;2.85;;;;;;;;;;5102776;28;20019;-59
2021/10/31 14:57:07;;;;;;;3.05;2.75;;;;;;;;;;5102407;28;20036;-59